createdAt,value
2018-11-12T00:05:00.590Z,100167.20
2018-11-12T00:10:12.224Z,100173.61
2018-11-12T00:15:17.776Z,100170.98
2018-11-12T00:20:22.415Z,100168.28
2018-11-12T00:25:27.108Z,100170.90
2018-11-12T00:30:31.812Z,100170.43
2018-11-12T00:35:36.551Z,100164.80
2018-11-12T00:40:42.436Z,100175.45
2018-11-12T00:45:46.930Z,100183.67
2018-11-12T00:50:51.725Z,100199.95
2018-11-12T00:55:56.147Z,100211.73
2018-11-12T01:01:01.678Z,100229.00
2018-11-12T01:06:06.265Z,100232.95
2018-11-12T01:11:11.275Z,100246.62
2018-11-12T01:16:15.921Z,100244.47
2018-11-12T01:21:20.423Z,100248.25
2018-11-12T01:26:30.703Z,100236.26
2018-11-12T01:31:36.312Z,100227.48
2018-11-12T01:36:59.357Z,100229.12
2018-11-12T01:42:05.661Z,100230.31
2018-11-12T01:47:10.803Z,100229.84
2018-11-12T01:52:15.383Z,100220.30
2018-11-12T01:57:19.797Z,100218.48
2018-11-12T02:02:25.395Z,100219.26
2018-11-12T02:07:29.693Z,100230.73
2018-11-12T02:12:34.617Z,100226.25
2018-11-12T02:17:39.549Z,100225.00
2018-11-12T02:22:45.162Z,100221.74
2018-11-12T02:27:50.272Z,100224.52
2018-11-12T02:32:56.316Z,100226.70
2018-11-12T02:38:00.932Z,100224.85
2018-11-12T02:43:05.381Z,100233.91
2018-11-12T02:48:09.986Z,100229.92
2018-11-12T02:53:14.545Z,100230.22
2018-11-12T02:58:19.455Z,100236.42
2018-11-12T03:03:24.060Z,100227.37
2018-11-12T03:08:33.381Z,100235.39
2018-11-12T03:13:37.734Z,100231.98
2018-11-12T03:18:42.437Z,100237.89
2018-11-12T03:23:47.132Z,100233.13
2018-11-12T03:28:51.941Z,100244.03
2018-11-12T03:33:56.307Z,100251.27
2018-11-12T03:39:00.781Z,100245.47
2018-11-12T03:44:05.406Z,100243.64
2018-11-12T03:49:09.996Z,100241.50
2018-11-12T03:54:14.415Z,100242.31
2018-11-12T03:59:18.715Z,100235.89
2018-11-12T04:04:23.243Z,100246.53
2018-11-12T04:09:27.593Z,100251.34
2018-11-12T04:14:32.203Z,100246.27
2018-11-12T04:19:36.523Z,100242.28
2018-11-12T04:24:41.163Z,100240.41
2018-11-12T04:29:45.389Z,100234.56
2018-11-12T04:34:50.049Z,100243.69
2018-11-12T04:39:55.065Z,100237.29
2018-11-12T04:44:59.442Z,100245.05
2018-11-12T04:50:04.157Z,100242.91
2018-11-12T04:55:09.396Z,100246.12
2018-11-12T05:00:17.119Z,100232.30
2018-11-12T05:05:22.887Z,100231.55
2018-11-12T05:10:27.841Z,100238.23
2018-11-12T05:15:32.619Z,100218.83
2018-11-12T05:20:37.535Z,100224.44
2018-11-12T05:25:42.381Z,100228.98
2018-11-12T05:30:46.647Z,100223.95
2018-11-12T05:35:50.943Z,100212.47
2018-11-12T05:40:55.515Z,100213.51
2018-11-12T05:46:00.033Z,100215.65
2018-11-12T05:51:06.417Z,100217.76
2018-11-12T05:56:10.874Z,100208.97
2018-11-12T06:01:15.210Z,100223.59
2018-11-12T06:06:20.166Z,100234.73
2018-11-12T06:11:24.940Z,100238.48
2018-11-12T06:16:29.363Z,100253.36
2018-11-12T06:21:34.028Z,100265.36
2018-11-12T06:26:38.440Z,100260.06
2018-11-12T06:31:42.953Z,100258.52
2018-11-12T06:36:47.950Z,100270.52
2018-11-12T06:41:52.527Z,100264.61
2018-11-12T06:46:57.203Z,100266.17
2018-11-12T06:52:05.729Z,100275.35
2018-11-12T06:57:10.611Z,100273.41
2018-11-12T07:02:15.601Z,100265.13
2018-11-12T07:07:25.055Z,100270.16
2018-11-12T07:12:30.255Z,100266.66
2018-11-12T07:17:49.632Z,100278.86
2018-11-12T07:23:12.081Z,100289.15
2018-11-12T07:28:22.005Z,100276.58
2018-11-12T07:33:26.765Z,100292.00
2018-11-12T07:38:36.163Z,100292.71
2018-11-12T07:43:41.412Z,100285.98
2018-11-12T07:48:45.870Z,100273.97
2018-11-12T07:53:50.667Z,100276.38
2018-11-12T07:58:57.079Z,100297.94
2018-11-12T08:04:01.743Z,100293.42
2018-11-12T08:09:08.538Z,100296.56
2018-11-12T08:14:12.984Z,100295.09
2018-11-12T08:19:22.786Z,100298.72
2018-11-12T08:24:27.491Z,100296.34
2018-11-12T08:29:32.167Z,100295.23
2018-11-12T08:34:36.665Z,100293.57
2018-11-12T08:39:41.252Z,100291.42
2018-11-12T08:44:46.735Z,100282.77
2018-11-12T08:49:51.719Z,100294.51
2018-11-12T08:54:56.826Z,100277.75
2018-11-12T09:00:01.764Z,100280.37
2018-11-12T09:05:08.788Z,100277.64
2018-11-12T09:10:29.365Z,100287.56
2018-11-12T09:15:34.604Z,100276.55
2018-11-12T09:20:44.969Z,100262.63
2018-11-12T09:25:49.612Z,100267.27
2018-11-12T09:30:55.512Z,100275.28
2018-11-12T09:35:59.013Z,100269.94
2018-11-12T09:41:03.430Z,100264.37
2018-11-12T09:46:07.820Z,100258.77
2018-11-12T09:51:19.780Z,100256.47
2018-11-12T09:56:26.721Z,100250.33
2018-11-12T10:01:31.893Z,100237.96
2018-11-12T10:06:37.340Z,100237.93
2018-11-12T10:11:42.367Z,100243.71
2018-11-12T10:16:47.269Z,100255.93
2018-11-12T10:21:49.763Z,100252.39
2018-11-12T10:26:54.325Z,100251.41
2018-11-12T10:31:58.810Z,100245.72
2018-11-12T10:37:03.443Z,100246.89
2018-11-12T10:42:08.741Z,100239.49
2018-11-12T10:47:13.360Z,100240.73
2018-11-12T10:52:18.520Z,100227.52
2018-11-12T10:57:27.970Z,100222.27
2018-11-12T11:02:33.918Z,100217.69
2018-11-12T11:07:38.460Z,100209.42
2018-11-12T11:12:42.843Z,100210.72
2018-11-12T11:17:47.504Z,100209.70
2018-11-12T11:22:52.107Z,100201.62
2018-11-12T11:27:56.881Z,100183.63
2018-11-12T11:33:02.005Z,100177.45
2018-11-12T11:38:06.781Z,100183.08
2018-11-12T11:43:11.502Z,100176.95
2018-11-12T11:48:16.159Z,100177.08
2018-11-12T11:53:20.980Z,100177.58
2018-11-12T11:58:26.153Z,100168.79
2018-11-12T12:03:30.467Z,100174.92
2018-11-12T12:08:36.147Z,100175.35
2018-11-12T12:13:40.989Z,100165.87
2018-11-12T12:18:45.569Z,100159.10
2018-11-12T12:23:49.727Z,100165.24
2018-11-12T12:28:54.761Z,100170.65
2018-11-12T12:33:59.398Z,100166.62
2018-11-12T12:39:10.697Z,100181.42
2018-11-12T12:44:16.275Z,100181.75
2018-11-12T12:49:21.018Z,100181.75
2018-11-12T12:54:25.985Z,100183.84
2018-11-12T12:59:30.554Z,100176.58
2018-11-12T13:04:34.977Z,100177.83
2018-11-12T13:09:39.511Z,100181.64
2018-11-12T13:14:43.996Z,100172.12
2018-11-12T13:19:48.556Z,100177.17
2018-11-12T13:24:52.773Z,100177.96
2018-11-12T13:29:57.554Z,100186.37
2018-11-12T13:35:02.329Z,100172.89
2018-11-12T13:40:09.563Z,100179.38
2018-11-12T13:45:14.274Z,100173.00
2018-11-12T13:50:20.138Z,100186.63
2018-11-12T13:55:25.125Z,100188.77
2018-11-12T14:00:30.860Z,100196.16
2018-11-12T14:05:35.241Z,100198.18
2018-11-12T14:10:39.858Z,100195.48
2018-11-12T14:15:44.596Z,100196.81
2018-11-12T14:20:49.152Z,100204.06
2018-11-12T14:25:54.395Z,100202.66
2018-11-12T14:30:58.936Z,100212.48
2018-11-12T14:36:03.451Z,100215.03
2018-11-12T14:41:07.824Z,100222.09
2018-11-12T14:46:12.307Z,100225.91
2018-11-12T14:51:16.874Z,100232.63
2018-11-12T14:56:21.537Z,100234.67
2018-11-12T15:01:26.933Z,100233.27
2018-11-12T15:06:31.328Z,100232.02
2018-11-12T15:11:36.918Z,100229.94
2018-11-12T15:16:42.042Z,100247.78
2018-11-12T15:21:47.011Z,100255.37
2018-11-12T15:26:51.785Z,100251.11
2018-11-12T15:31:56.475Z,100254.01
2018-11-12T15:37:14.833Z,100259.48
2018-11-12T15:42:19.209Z,100258.73
2018-11-12T15:47:23.842Z,100264.66
2018-11-12T15:52:28.798Z,100263.25
2018-11-12T15:57:38.325Z,100261.30
2018-11-12T16:02:42.727Z,100259.11
2018-11-12T16:07:47.425Z,100251.06
2018-11-12T16:12:52.442Z,100249.64
2018-11-12T16:18:06.234Z,100257.70
2018-11-12T16:23:10.855Z,100253.47
2018-11-12T16:28:17.200Z,100255.19
2018-11-12T16:33:21.764Z,100254.90
2018-11-12T16:38:26.284Z,100267.13
2018-11-12T16:43:31.759Z,100272.64
2018-11-12T16:48:36.447Z,100271.70
2018-11-12T16:53:41.111Z,100272.95
2018-11-12T16:58:45.452Z,100279.01
2018-11-12T17:03:50.236Z,100268.39
2018-11-12T17:08:54.896Z,100266.33
2018-11-12T17:13:59.534Z,100282.56
2018-11-12T17:19:04.254Z,100272.60
2018-11-12T17:24:09.114Z,100303.73
2018-11-12T17:29:14.364Z,100310.41
2018-11-12T17:34:19.028Z,100326.45
2018-11-12T17:39:23.677Z,100335.97
2018-11-12T17:44:28.733Z,100342.98
2018-11-12T17:49:33.653Z,100351.41
2018-11-12T17:54:38.387Z,100346.75
2018-11-12T17:59:42.872Z,100355.17
2018-11-12T18:04:47.590Z,100344.71
2018-11-12T18:09:52.316Z,100348.05
2018-11-12T18:14:57.709Z,100357.38
2018-11-12T18:20:02.576Z,100358.28
2018-11-12T18:25:11.860Z,100367.01
2018-11-12T18:30:25.491Z,100368.61
2018-11-12T18:35:30.637Z,100376.05
2018-11-12T18:40:35.604Z,100374.34
2018-11-12T18:45:40.935Z,100374.21
2018-11-12T18:50:45.546Z,100370.64
2018-11-12T18:55:50.757Z,100365.84
2018-11-12T19:00:56.304Z,100348.98
2018-11-12T19:06:01.290Z,100349.14
2018-11-12T19:11:16.487Z,100353.58
2018-11-12T19:16:20.949Z,100374.84
2018-11-12T19:21:25.595Z,100390.80
2018-11-12T19:26:31.009Z,100406.51
2018-11-12T19:31:35.555Z,100417.26
2018-11-12T19:36:40.376Z,100416.39
2018-11-12T19:41:45.484Z,100418.14
2018-11-12T19:46:50.482Z,100416.57
2018-11-12T19:51:55.414Z,100418.62
2018-11-12T19:57:02.759Z,100430.49
2018-11-12T20:02:08.879Z,100430.74
2018-11-12T20:07:19.782Z,100441.48
2018-11-12T20:17:35.421Z,100465.80
2018-11-12T20:22:41.481Z,100462.45
2018-11-12T20:27:47.008Z,100459.48
2018-11-12T20:32:52.382Z,100445.92
2018-11-12T20:37:57.874Z,100443.51
2018-11-12T20:43:02.690Z,100452.02
2018-11-12T20:48:08.043Z,100453.36
2018-11-12T20:53:21.919Z,100443.69
2018-11-12T20:58:31.105Z,100443.69
2018-11-12T21:03:35.926Z,100447.44
2018-11-12T21:08:43.400Z,100439.47
2018-11-12T21:13:48.829Z,100427.77
2018-11-12T21:18:58.580Z,100404.77
2018-11-12T21:24:04.659Z,100407.27
2018-11-12T21:29:23.208Z,100422.72
2018-11-12T21:34:28.389Z,100419.84
2018-11-12T21:39:33.565Z,100424.53
2018-11-12T21:44:43.877Z,100425.61
2018-11-12T21:49:50.494Z,100426.70
2018-11-12T21:54:56.409Z,100417.56
2018-11-12T22:05:35.787Z,100429.27
2018-11-12T22:10:41.904Z,100449.77
2018-11-12T22:15:47.960Z,100444.16
2018-11-12T22:20:53.617Z,100448.42
2018-11-12T22:25:58.185Z,100450.20
2018-11-12T22:31:02.943Z,100438.40
2018-11-12T22:36:07.528Z,100441.53
2018-11-12T22:41:19.557Z,100446.78
2018-11-12T22:46:30.274Z,100452.59
2018-11-12T22:51:37.220Z,100455.27
2018-11-12T22:56:41.768Z,100453.20
2018-11-12T23:01:46.207Z,100457.46
2018-11-12T23:06:51.688Z,100461.72
2018-11-12T23:11:56.589Z,100465.59
2018-11-12T23:17:00.992Z,100467.23
2018-11-12T23:22:06.648Z,100468.09
2018-11-12T23:27:11.030Z,100469.12
2018-11-12T23:32:15.720Z,100474.47
2018-11-12T23:37:20.545Z,100478.52
2018-11-12T23:42:24.842Z,100467.15
2018-11-12T23:47:29.152Z,100467.23
2018-11-12T23:52:33.526Z,100459.70
2018-11-12T23:57:37.959Z,100451.48
